Terminal Aerodrome Forecast
Issued by NWS Jackson, KY

Home | Current Version | Previous Version | Text Only | Print | Product List | Glossary On
Versions: 1 2 3 4 5 6 7 8 9 10 11 12 13 14 15
921
FTUS43 KJKL 281123
TAFLOZ
TAF
KLOZ 281123Z 2812/2912 00000KT P6SM SCT250
     FM281700 05005KT P6SM VCTS SCT050CB SCT250
     FM282300 VRB03KT P6SM SCT250=

USA.gov is the U.S. government's official web portal to all federal, state and local government web resources and services.